地図

経路データ

SID SEASON NUMBER BASIN SUBBASIN NAME ISO_TIME NATURE LAT LON WMO_WIND WMO_PRES WMO_AGENCY TRACK_TYPE DIST2LAND LANDFALL IFLAG USA_AGENCY USA_ATCF_ID USA_LAT USA_LON USA_RECORD USA_STATUS USA_WIND USA_PRES USA_SSHS USA_R34_NE USA_R34_SE USA_R34_SW USA_R34_NW USA_R50_NE USA_R50_SE USA_R50_SW USA_R50_NW USA_R64_NE USA_R64_SE USA_R64_SW USA_R64_NW USA_POCI USA_ROCI USA_RMW USA_EYE TOKYO_LAT TOKYO_LON TOKYO_GRADE TOKYO_WIND TOKYO_PRES TOKYO_R50_DIR TOKYO_R50_LONG TOKYO_R50_SHORT TOKYO_R30_DIR TOKYO_R30_LONG TOKYO_R30_SHORT TOKYO_LAND CMA_LAT CMA_LON CMA_CAT CMA_WIND CMA_PRES HKO_LAT HKO_LON HKO_CAT HKO_WIND HKO_PRES NEWDELHI_LAT NEWDELHI_LON NEWDELHI_GRADE NEWDELHI_WIND NEWDELHI_PRES NEWDELHI_CI NEWDELHI_DP NEWDELHI_POCI REUNION_LAT REUNION_LON REUNION_TYPE REUNION_WIND REUNION_PRES REUNION_TNUM REUNION_CI REUNION_RMW REUNION_R34_NE REUNION_R34_SE REUNION_R34_SW REUNION_R34_NW REUNION_R50_NE REUNION_R50_SE REUNION_R50_SW REUNION_R50_NW REUNION_R64_NE REUNION_R64_SE REUNION_R64_SW REUNION_R64_NW BOM_LAT BOM_LON BOM_TYPE BOM_WIND BOM_PRES BOM_TNUM BOM_CI BOM_RMW BOM_R34_NE BOM_R34_SE BOM_R34_SW BOM_R34_NW BOM_R50_NE BOM_R50_SE BOM_R50_SW BOM_R50_NW BOM_R64_NE BOM_R64_SE BOM_R64_SW BOM_R64_NW BOM_ROCI BOM_POCI BOM_EYE BOM_POS_METHOD BOM_PRES_METHOD NADI_LAT NADI_LON NADI_CAT NADI_WIND NADI_PRES WELLINGTON_LAT WELLINGTON_LON WELLINGTON_WIND WELLINGTON_PRES DS824_LAT DS824_LON DS824_STAGE DS824_WIND DS824_PRES TD9636_LAT TD9636_LON TD9636_STAGE TD9636_WIND TD9636_PRES TD9635_LAT TD9635_LON TD9635_WIND TD9635_PRES TD9635_ROCI NEUMANN_LAT NEUMANN_LON NEUMANN_CLASS NEUMANN_WIND NEUMANN_PRES MLC_LAT MLC_LON MLC_CLASS MLC_WIND MLC_PRES USA_GUST BOM_GUST BOM_GUST_PER REUNION_GUST REUNION_GUST_PER USA_SEAHGT USA_SEARAD_NE USA_SEARAD_SE USA_SEARAD_SW USA_SEARAD_NW STORM_SPEED STORM_DIR
1982054S23036 1982 15 SI MM NOT_NAMED 1982-02-22 12:00:00 TS -22.6000 36.2000 main 70 65 O_________O_O_ jtwc_sh SH201982 -22.6000 36.2000 25 -1 -22.6000 36.2000 1 25 -22.6000 36.2000 TC 25 10 160
1982054S23036 1982 15 SI MM NOT_NAMED 1982-02-22 15:00:00 TS -23.0648 36.3831 main 84 84 P_________P_P_ SH201982 -23.0726 36.3723 25 -1 -23.0491 36.4045 1 26 -23.0726 36.3723 TC 25 10 157
1982054S23036 1982 15 SI MM NOT_NAMED 1982-02-22 18:00:00 TS -23.4895 36.6159 main 117 117 O_________P_O_ jtwc_sh SH201982 -23.5000 36.6000 25 -1 -23.4686 36.6477 1 27 -23.5000 36.6000 TC 25 9 146
1982054S23036 1982 15 SI MM NOT_NAMED 1982-02-22 21:00:00 TS -23.8394 36.9440 main 142 142 P_________P_P_ SH201982 -23.8447 36.9326 27 -1 -23.8289 36.9670 1 28 -23.8447 36.9326 TC 27 9 130
1982054S23036 1982 15 SI MM NOT_NAMED 1982-02-23 00:00:00 TS -24.1000 37.4000 main 192 192 O_________O_O_ jtwc_sh SH201982 -24.1000 37.4000 30 -1 -24.1000 37.4000 1 30 -24.1000 37.4000 TC 30 11 114
1982054S23036 1982 15 SI MM NOT_NAMED 1982-02-23 03:00:00 TS -24.2708 37.9978 main 254 254 P_________P_P_ SH201982 -24.2726 38.0128 32 -1 -24.2672 37.9680 1 32 -24.2726 38.0128 TC 32 12 104
1982054S23036 1982 15 SI MM NOT_NAMED 1982-02-23 06:00:00 TS -24.3931 38.6762 main 325 325 O_________P_O_ jtwc_sh SH201982 -24.4000 38.7000 35 0 -24.3793 38.6287 1 35 -24.4000 38.7000 TC 35 13 101
1982054S23036 1982 15 SI MM NOT_NAMED 1982-02-23 09:00:00 TS -24.5138 39.3519 main 397 380 P_________P_P_ SH201982 -24.5199 39.3655 37 0 -24.5015 39.3247 1 37 -24.5199 39.3655 TC 37 12 104
1982054S23036 1982 15 SI MM NOT_NAMED 1982-02-23 12:00:00 TS -24.7000 40.0000 main 380 334 O_________O_O_ jtwc_sh SH201982 -24.7000 40.0000 40 0 -24.7000 40.0000 2 40 -24.7000 40.0000 TC 40 12 114
1982054S23036 1982 15 SI MM NOT_NAMED 1982-02-23 15:00:00 TS -25.0005 40.5702 main 325 286 P_________P_P_ SH201982 -24.9896 40.5654 42 0 -25.0221 40.5797 2 41 -24.9896 40.5654 TC 42 12 125
1982054S23036 1982 15 SI MM NOT_NAMED 1982-02-23 18:00:00 TS -25.4112 41.1106 main 286 256 O_________P_O_ jtwc_sh SH201982 -25.4000 41.1000 45 0 -25.4337 41.1319 2 42 -25.4000 41.1000 TC 45 13 133
1982054S23036 1982 15 SI MM NOT_NAMED 1982-02-23 21:00:00 TS -25.9077 41.6563 main 251 241 P_________P_P_ SH201982 -25.8973 41.6504 45 0 -25.9285 41.6681 2 43 -25.8973 41.6504 TC 45 15 138
1982054S23036 1982 15 SI MM NOT_NAMED 1982-02-24 00:00:00 TS -26.5000 42.2000 main 246 246 O_________O_O_ jtwc_sh SH201982 -26.5000 42.2000 45 0 -26.5000 42.2000 2 45 -26.5000 42.2000 TC 45 16 142
1982054S23036 1982 15 SI MM NOT_NAMED 1982-02-24 03:00:00 TS -27.1716 42.7539 main 265 265 P_________P_P_ SH201982 -27.1773 42.7504 45 0 -27.1603 42.7608 2 43 -27.1773 42.7504 TC 45 17 145
1982054S23036 1982 15 SI MM NOT_NAMED 1982-02-24 06:00:00 TS -27.8949 43.3068 main 310 310 O_________P_O_ jtwc_sh SH201982 -27.9000 43.3000 45 0 -27.8847 43.3205 2 42 -27.9000 43.3000 TC 45 18 146
1982054S23036 1982 15 SI MM NOT_NAMED 1982-02-24 09:00:00 TS -28.6255 43.8618 main 358 358 P_________P_P_ SH201982 -28.6298 43.8576 42 0 -28.6167 43.8703 2 41 -28.6298 43.8576 TC 42 17 146
1982054S23036 1982 15 SI MM NOT_NAMED 1982-02-24 12:00:00 TS -29.3000 44.4000 main 420 420 O_________O_O_ jtwc_sh SH201982 -29.3000 44.4000 40 0 -29.3000 44.4000 2 40 -29.3000 44.4000 TC 40 15 143
1982054S23036 1982 15 SI MM NOT_NAMED 1982-02-24 15:00:00 TS -29.8331 44.9030 main 469 469 P_________P_P_ SH201982 -29.8298 44.9159 37 0 -29.8396 44.8771 2 37 -29.8298 44.9159 TC 37 13 140
1982054S23036 1982 15 SI MM NOT_NAMED 1982-02-24 18:00:00 TS -30.3092 45.3781 main 524 524 O_________P_O_ jtwc_sh SH201982 -30.3000 45.4000 35 0 -30.3276 45.3344 2 35 -30.3000 45.4000 TC 35 12 140
1982054S23036 1982 15 SI MM NOT_NAMED 1982-02-24 21:00:00 TS -30.7903 45.8239 main 581 581 P_________P_P_ SH201982 -30.7845 45.8362 32 -1 -30.8020 45.7992 2 32 -30.7845 45.8362 TC 32 13 141
1982054S23036 1982 15 SI MM NOT_NAMED 1982-02-25 00:00:00 TS -31.3000 46.3000 main 641 641 O_________O_O_ jtwc_sh SH201982 -31.3000 46.3000 30 -1 -31.3000 46.3000 1 30 -31.3000 46.3000 TC 30 14 141
1982054S23036 1982 15 SI MM NOT_NAMED 1982-02-25 03:00:00 TS -31.8732 46.8667 main 716 716 P_________P_P_ SH201982 -31.8849 46.8703 27 -1 -31.8498 46.8595 1 28 -31.8849 46.8703 TC 27 16 139
1982054S23036 1982 15 SI MM NOT_NAMED 1982-02-25 06:00:00 TS -32.4813 47.4906 main 794 794 O_________P_O_ jtwc_sh SH201982 -32.5000 47.5000 25 -1 -32.4440 47.4718 1 27 -32.5000 47.5000 TC 25 16 139
1982054S23036 1982 15 SI MM NOT_NAMED 1982-02-25 09:00:00 TS -33.0924 48.1384 main 874 874 P_________P_P_ SH201982 -33.1056 48.1459 25 -1 -33.0661 48.1234 1 26 -33.1056 48.1459 TC 25 16 138
1982054S23036 1982 15 SI MM NOT_NAMED 1982-02-25 12:00:00 TS -33.7000 48.8000 main 958 O_________O_O_ jtwc_sh SH201982 -33.7000 48.8000 25 -1 -33.7000 48.8000 1 25 -33.7000 48.8000 TC 25 16 138

IBTrACS Databaseについて

本データベースは、米国NOAAが公開する1842年以降の世界の熱帯低気圧のベストトラックデータアーカイブInternational Best Track Archive for Climate Stewardship (IBTrACS)を、ウェブで閲覧しやすい形式に変換したものです。

最終更新日:2021-11-26